Aviation Digital Data Service (ADDS)

Output produced by METARs form (2152 UTC 19 February 2018)
found at http://www.aviationweather.gov/adds/metars/
 
LUKK 192130Z 00000KT 4300 FU NSC M06/M08 Q1025 R08/190095 NOSIG
TAF LUKK 191720Z 1918/2018 34006KT 9999 SCT020 
     BECMG 1921/1923 05004KT 
     TEMPO 1922/2006 4200 BR BKN008
       
LUKK 192130Z 00000KT 4300 FU NSC M06/M08 Q1025 R08/190095 NOSIG
TAF LUKK 191720Z 1918/2018 34006KT 9999 SCT020 
     BECMG 1921/1923 05004KT 
     TEMPO 1922/2006 4200 BR BKN008